createdAt,value
2019-04-27T00:00:03.746Z,55.48
2019-04-27T00:05:03.295Z,55.54
2019-04-27T00:10:03.480Z,55.54
2019-04-27T00:15:03.415Z,55.61
2019-04-27T00:20:04.387Z,55.65
2019-04-27T00:25:03.460Z,55.65
2019-04-27T00:30:03.859Z,55.69
2019-04-27T00:35:03.758Z,55.72
2019-04-27T00:40:03.513Z,55.71
2019-04-27T00:45:05.237Z,55.72
2019-04-27T00:50:03.571Z,55.73
2019-04-27T00:55:03.215Z,55.72
2019-04-27T01:00:03.126Z,55.72
2019-04-27T01:05:03.759Z,55.72
2019-04-27T01:10:05.251Z,55.74
2019-04-27T01:15:03.652Z,55.74
2019-04-27T01:20:03.142Z,55.81
2019-04-27T01:25:02.631Z,55.78
2019-04-27T01:30:03.048Z,55.78
2019-04-27T01:35:02.509Z,55.84
2019-04-27T01:40:03.042Z,55.84
2019-04-27T01:45:02.577Z,55.95
2019-04-27T01:50:03.020Z,55.92
2019-04-27T01:55:02.454Z,55.98
2019-04-27T02:00:02.883Z,55.96
2019-04-27T02:05:03.395Z,55.96
2019-04-27T02:10:02.800Z,55.95
2019-04-27T02:15:03.275Z,56.02
2019-04-27T02:20:02.684Z,56.03
2019-04-27T02:25:03.209Z,56.04
2019-04-27T02:30:02.633Z,56.0
2019-04-27T02:35:03.102Z,55.97
2019-04-27T02:40:02.594Z,55.97
2019-04-27T02:45:03.092Z,55.94
2019-04-27T02:50:02.559Z,55.93
2019-04-27T02:55:03.018Z,55.97
2019-04-27T03:00:02.542Z,55.94
2019-04-27T03:05:02.980Z,56.01
2019-04-27T03:10:02.882Z,56.03
2019-04-27T03:15:02.440Z,56.1
2019-04-27T03:20:02.870Z,56.12
2019-04-27T03:25:03.369Z,56.17
2019-04-27T03:30:02.833Z,56.24
2019-04-27T03:35:03.712Z,56.27
2019-04-27T03:40:02.399Z,56.32
2019-04-27T03:45:03.266Z,56.4
2019-04-27T03:50:02.656Z,56.42
2019-04-27T03:55:03.113Z,56.43
2019-04-27T04:00:02.529Z,56.44
2019-04-27T04:05:02.934Z,56.45
2019-04-27T04:10:03.428Z,56.47
2019-04-27T04:15:02.861Z,56.49
2019-04-27T04:20:03.364Z,56.55
2019-04-27T04:25:02.747Z,56.56
2019-04-27T04:30:03.246Z,56.56
2019-04-27T04:35:02.653Z,56.65
2019-04-27T04:40:03.168Z,56.68
2019-04-27T04:45:02.593Z,56.77
2019-04-27T04:50:11.292Z,56.86
2019-04-27T04:55:02.942Z,56.93
2019-04-27T05:00:02.419Z,56.97
2019-04-27T05:05:02.820Z,57.04
2019-04-27T05:10:03.309Z,57.11
2019-04-27T05:15:02.729Z,57.24
2019-04-27T05:20:03.162Z,57.38
2019-04-27T05:25:02.714Z,57.43
2019-04-27T05:30:03.232Z,57.49
2019-04-27T05:35:02.658Z,57.58
2019-04-27T05:40:03.075Z,57.63
2019-04-27T05:45:01.691Z,57.66
2019-04-27T05:50:03.145Z,57.63
2019-04-27T05:55:02.666Z,57.65
2019-04-27T06:00:03.201Z,57.69
2019-04-27T06:05:02.649Z,57.65
2019-04-27T06:10:03.082Z,57.65
2019-04-27T06:15:02.483Z,57.62
2019-04-27T06:20:02.934Z,57.59
2019-04-27T06:25:03.387Z,57.62
2019-04-27T06:30:04.864Z,57.66
2019-04-27T06:35:02.429Z,57.64
2019-04-27T06:40:02.859Z,57.69
2019-04-27T06:45:03.305Z,57.73
2019-04-27T06:50:02.734Z,57.77
2019-04-27T06:55:03.206Z,57.82
2019-04-27T07:00:02.818Z,57.86
2019-04-27T07:05:03.338Z,57.9
2019-04-27T07:10:02.763Z,58.02
2019-04-27T07:15:03.205Z,58.95
2019-04-27T07:20:02.621Z,59.04
2019-04-27T07:25:03.070Z,59.29
2019-04-27T07:30:02.578Z,59.25
2019-04-27T07:35:03.025Z,59.1
2019-04-27T07:40:02.476Z,59.1
2019-04-27T07:45:02.983Z,58.98
2019-04-27T07:50:02.442Z,59.01
2019-04-27T07:55:02.980Z,58.89
2019-04-27T08:00:02.477Z,58.83
2019-04-27T08:05:02.930Z,58.91
2019-04-27T08:10:03.445Z,58.86
2019-04-27T08:15:02.881Z,58.89
2019-04-27T08:20:03.340Z,59.02
2019-04-27T08:25:02.764Z,59.04
2019-04-27T08:30:03.200Z,59.03
2019-04-27T08:35:02.611Z,58.92
2019-04-27T08:40:03.061Z,58.79
2019-04-27T08:45:02.515Z,58.73
2019-04-27T08:50:02.960Z,58.74
2019-04-27T08:55:02.487Z,58.84
2019-04-27T09:00:02.982Z,58.77
2019-04-27T09:05:02.411Z,58.83
2019-04-27T09:10:02.042Z,59.03
2019-04-27T09:15:02.492Z,59.11
2019-04-27T09:20:02.934Z,59.13
2019-04-27T09:25:03.399Z,59.07
2019-04-27T09:30:02.911Z,59.12
2019-04-27T09:35:03.359Z,59.13
2019-04-27T09:40:02.897Z,59.2
2019-04-27T09:45:03.389Z,59.51
2019-04-27T09:50:02.923Z,59.44
2019-04-27T09:55:03.359Z,59.17
2019-04-27T10:00:02.735Z,58.98
2019-04-27T10:05:03.243Z,58.84
2019-04-27T10:10:02.661Z,59.01
2019-04-27T10:15:03.083Z,59.2
2019-04-27T10:20:02.652Z,59.29
2019-04-27T10:25:03.047Z,59.31
2019-04-27T10:30:02.509Z,58.93
2019-04-27T10:35:02.905Z,58.72
2019-04-27T10:40:03.298Z,58.49
2019-04-27T10:45:02.825Z,58.24
2019-04-27T10:50:03.362Z,58.15
2019-04-27T10:55:02.854Z,58.14
2019-04-27T11:00:03.323Z,58.14
2019-04-27T11:05:02.808Z,58.11
2019-04-27T11:10:03.276Z,58.13
2019-04-27T11:15:02.808Z,58.12
2019-04-27T11:20:03.409Z,58.13
2019-04-27T11:25:02.870Z,58.04
2019-04-27T11:30:03.389Z,58.12
2019-04-27T11:35:02.912Z,58.15
2019-04-27T11:40:03.396Z,58.07
2019-04-27T11:45:02.867Z,58.0
2019-04-27T11:50:03.309Z,58.6
2019-04-27T11:55:02.755Z,60.09
2019-04-27T12:00:03.193Z,59.93
2019-04-27T12:05:02.589Z,60.05
2019-04-27T12:10:03.041Z,59.88
2019-04-27T12:15:02.549Z,59.68
2019-04-27T12:20:02.991Z,59.55
2019-04-27T12:25:02.422Z,59.41
2019-04-27T12:30:02.831Z,59.32
2019-04-27T12:35:03.309Z,58.7
2019-04-27T12:40:02.717Z,58.47
2019-04-27T12:45:03.222Z,58.34
2019-04-27T12:50:02.015Z,58.43
2019-04-27T12:55:01.610Z,59.66
2019-04-27T13:00:03.453Z,60.52
2019-04-27T13:05:02.842Z,60.62
2019-04-27T13:10:02.816Z,59.46
2019-04-27T13:15:03.275Z,57.58
2019-04-27T13:20:02.772Z,57.59
2019-04-27T13:25:03.262Z,57.22
2019-04-27T13:30:04.876Z,57.53
2019-04-27T13:35:02.689Z,57.54
2019-04-27T13:40:07.137Z,55.63
2019-04-27T13:45:02.837Z,54.06
2019-04-27T13:50:03.350Z,53.1
2019-04-27T13:55:02.817Z,52.8
2019-04-27T14:00:03.284Z,52.69
2019-04-27T14:05:02.796Z,49.32
2019-04-27T14:10:03.217Z,48.45
2019-04-27T14:15:02.773Z,47.92
2019-04-27T14:20:03.178Z,47.84
2019-04-27T14:25:02.691Z,48.0
2019-04-27T14:30:03.141Z,48.17
2019-04-27T14:35:02.667Z,48.42
2019-04-27T14:40:03.417Z,48.65
2019-04-27T14:45:02.897Z,48.98
2019-04-27T14:50:03.408Z,49.27
2019-04-27T14:55:03.027Z,49.71
2019-04-27T15:00:02.517Z,49.98
2019-04-27T15:05:03.000Z,50.33
2019-04-27T15:10:02.498Z,50.37
2019-04-27T15:15:02.947Z,50.54
2019-04-27T15:20:03.428Z,50.56
2019-04-27T15:25:12.320Z,51.07
2019-04-27T15:30:08.194Z,51.3
2019-04-27T15:35:05.220Z,51.48
2019-04-27T15:40:08.269Z,51.57
2019-04-27T15:45:03.256Z,51.62
2019-04-27T15:50:02.649Z,51.92
2019-04-27T15:55:07.459Z,52.38
2019-04-27T16:00:03.033Z,52.66
2019-04-27T16:05:02.458Z,53.0
2019-04-27T16:10:02.910Z,53.17
2019-04-27T16:15:05.129Z,53.4
2019-04-27T16:20:02.815Z,53.54
2019-04-27T16:25:03.924Z,54.05
2019-04-27T16:30:09.862Z,54.19
2019-04-27T16:35:02.605Z,54.58
2019-04-27T16:40:03.088Z,54.7
2019-04-27T16:45:02.506Z,55.04
2019-04-27T16:50:02.955Z,55.19
2019-04-27T16:55:03.378Z,55.24
2019-04-27T17:00:02.908Z,55.37
2019-04-27T17:05:03.948Z,55.56
2019-04-27T17:10:02.365Z,56.0
2019-04-27T17:15:05.766Z,56.22
2019-04-27T17:20:03.257Z,56.46
2019-04-27T17:25:02.650Z,56.86
2019-04-27T17:30:03.215Z,57.1
2019-04-27T17:35:05.157Z,57.27
2019-04-27T17:40:03.218Z,57.17
2019-04-27T17:45:02.752Z,57.29
2019-04-27T17:50:03.277Z,57.3
2019-04-27T17:55:02.812Z,57.42
2019-04-27T18:00:03.534Z,57.56
2019-04-27T18:05:03.298Z,57.54
2019-04-27T18:10:02.789Z,57.56
2019-04-27T18:15:03.218Z,57.58
2019-04-27T18:20:02.779Z,57.56
2019-04-27T18:25:06.212Z,57.56
2019-04-27T18:30:03.464Z,57.61
2019-04-27T18:35:03.071Z,57.93
2019-04-27T18:40:02.559Z,57.97
2019-04-27T18:45:06.980Z,57.99
2019-04-27T18:50:10.927Z,58.01
2019-04-27T18:55:03.079Z,58.03
2019-04-27T19:00:02.600Z,58.03
2019-04-27T19:05:03.001Z,58.07
2019-04-27T19:10:02.483Z,58.04
2019-04-27T19:15:03.011Z,58.07
2019-04-27T19:20:02.482Z,58.09
2019-04-27T19:25:02.929Z,58.15
2019-04-27T19:30:03.412Z,58.26
2019-04-27T19:35:02.896Z,58.29
2019-04-27T19:40:03.324Z,58.34
2019-04-27T19:45:02.754Z,58.36
2019-04-27T19:50:03.206Z,58.43
2019-04-27T19:55:02.716Z,58.4
2019-04-27T20:00:03.357Z,58.38
2019-04-27T20:05:02.789Z,58.41
2019-04-27T20:10:03.227Z,58.39
2019-04-27T20:15:02.754Z,58.43
2019-04-27T20:20:03.190Z,58.59
2019-04-27T20:25:02.718Z,59.15
2019-04-27T20:30:03.424Z,59.08
2019-04-27T20:35:02.971Z,58.91
2019-04-27T20:40:02.400Z,58.88
2019-04-27T20:45:02.854Z,58.95
2019-04-27T20:50:03.309Z,59.0
2019-04-27T20:55:02.835Z,59.14
2019-04-27T21:00:03.256Z,59.19
2019-04-27T21:05:02.801Z,59.29
2019-04-27T21:10:03.263Z,59.32
2019-04-27T21:15:02.757Z,59.39
2019-04-27T21:20:03.217Z,59.42
2019-04-27T21:25:02.748Z,59.46
2019-04-27T21:30:03.290Z,59.49
2019-04-27T21:35:02.713Z,59.54
2019-04-27T21:40:02.295Z,59.58
2019-04-27T21:45:02.759Z,59.63
2019-04-27T21:50:03.262Z,59.64
2019-04-27T21:55:02.694Z,59.66
2019-04-27T22:00:02.270Z,59.71
2019-04-27T22:05:02.085Z,59.69
2019-04-27T22:10:02.679Z,59.76
2019-04-27T22:15:03.141Z,59.82
2019-04-27T22:20:02.537Z,59.84
2019-04-27T22:25:03.001Z,59.86
2019-04-27T22:30:02.453Z,59.88
2019-04-27T22:35:02.875Z,59.88
2019-04-27T22:40:03.313Z,59.85
2019-04-27T22:45:02.717Z,59.81
2019-04-27T22:50:03.168Z,59.84
2019-04-27T22:55:02.592Z,59.85
2019-04-27T23:00:07.369Z,59.85
2019-04-27T23:05:02.577Z,59.85
2019-04-27T23:10:02.998Z,59.89
2019-04-27T23:15:02.457Z,60.21
2019-04-27T23:20:02.897Z,60.3
2019-04-27T23:25:03.310Z,60.23
2019-04-27T23:30:02.728Z,60.17
2019-04-27T23:35:03.216Z,60.13
2019-04-27T23:40:02.918Z,60.11
2019-04-27T23:45:02.526Z,60.15
2019-04-27T23:50:02.991Z,60.13
2019-04-27T23:55:02.520Z,60.11
